sensor_id;sensor_type;location;lat;lon;timestamp;pressure;altitude;pressure_sealevel;temperature;humidity
83718;BME280;73701;52.234;21.288;2024-01-30T00:01:53;102294.34;;;1.17;84.96
83718;BME280;73701;52.234;21.288;2024-01-30T00:04:19;102324.56;;;1.29;85.72
83718;BME280;73701;52.234;21.288;2024-01-30T00:06:45;102310.97;;;1.30;84.93
83718;BME280;73701;52.234;21.288;2024-01-30T00:09:10;102145.88;;;0.36;84.84
83718;BME280;73701;52.234;21.288;2024-01-30T00:11:36;102266.34;;;0.96;85.35
83718;BME280;73701;52.234;21.288;2024-01-30T00:14:02;102285.81;;;1.17;85.56
83718;BME280;73701;52.234;21.288;2024-01-30T00:16:28;102301.25;;;1.20;84.99
83718;BME280;73701;52.234;21.288;2024-01-30T00:18:54;102303.16;;;1.26;85.68
83718;BME280;73701;52.234;21.288;2024-01-30T00:21:20;102257.91;;;0.99;85.70
83718;BME280;73701;52.234;21.288;2024-01-30T00:23:45;102259.66;;;1.00;85.52
83718;BME280;73701;52.234;21.288;2024-01-30T00:26:11;102273.16;;;1.22;85.78
83718;BME280;73701;52.234;21.288;2024-01-30T00:28:37;102276.44;;;1.17;85.00
83718;BME280;73701;52.234;21.288;2024-01-30T00:31:03;102256.13;;;0.96;84.86
83718;BME280;73701;52.234;21.288;2024-01-30T00:33:28;102265.91;;;1.10;85.78
83718;BME280;73701;52.234;21.288;2024-01-30T00:35:53;102265.69;;;1.02;85.90
83718;BME280;73701;52.234;21.288;2024-01-30T00:38:19;102271.13;;;1.11;84.92
83718;BME280;73701;52.234;21.288;2024-01-30T00:40:44;102268.47;;;1.10;85.63
83718;BME280;73701;52.234;21.288;2024-01-30T00:43:09;102252.91;;;1.02;85.47
83718;BME280;73701;52.234;21.288;2024-01-30T00:45:35;102221.56;;;0.82;85.52
83718;BME280;73701;52.234;21.288;2024-01-30T00:48:00;102212.75;;;0.74;85.59
83718;BME280;73701;52.234;21.288;2024-01-30T00:50:25;102249.38;;;0.98;85.50
83718;BME280;73701;52.234;21.288;2024-01-30T00:52:51;102289.56;;;1.02;85.38
83718;BME280;73701;52.234;21.288;2024-01-30T00:55:16;102275.25;;;1.08;85.69
83718;BME280;73701;52.234;21.288;2024-01-30T00:57:41;102261.25;;;0.96;85.89
83718;BME280;73701;52.234;21.288;2024-01-30T01:00:07;102277.06;;;1.10;85.36
83718;BME280;73701;52.234;21.288;2024-01-30T01:02:36;102135.22;;;0.22;85.76
83718;BME280;73701;52.234;21.288;2024-01-30T01:05:02;102269.09;;;1.02;85.14
83718;BME280;73701;52.234;21.288;2024-01-30T01:07:27;102242.53;;;0.97;84.92
83718;BME280;73701;52.234;21.288;2024-01-30T01:09:53;102264.94;;;1.05;85.46
83718;BME280;73701;52.234;21.288;2024-01-30T01:12:18;102248.22;;;0.89;85.49
83718;BME280;73701;52.234;21.288;2024-01-30T01:14:43;102244.53;;;0.80;85.24
83718;BME280;73701;52.234;21.288;2024-01-30T01:17:09;102254.81;;;0.82;85.68
83718;BME280;73701;52.234;21.288;2024-01-30T01:19:34;102304.69;;;0.95;85.31
83718;BME280;73701;52.234;21.288;2024-01-30T01:21:59;102273.13;;;0.94;86.11
83718;BME280;73701;52.234;21.288;2024-01-30T01:24:25;102126.88;;;0.02;86.00
83718;BME280;73701;52.234;21.288;2024-01-30T01:26:50;102231.22;;;0.65;86.03
83718;BME280;73701;52.234;21.288;2024-01-30T01:29:15;102227.69;;;0.61;85.83
83718;BME280;73701;52.234;21.288;2024-01-30T01:31:41;102222.88;;;0.71;85.61
83718;BME280;73701;52.234;21.288;2024-01-30T01:34:10;102250.25;;;0.73;85.76
83718;BME280;73701;52.234;21.288;2024-01-30T01:36:35;102141.69;;;0.12;85.75
83718;BME280;73701;52.234;21.288;2024-01-30T01:39:01;102202.44;;;0.45;86.21
83718;BME280;73701;52.234;21.288;2024-01-30T01:41:30;102262.09;;;0.71;86.53
83718;BME280;73701;52.234;21.288;2024-01-30T01:43:56;102220.63;;;0.54;85.91
83718;BME280;73701;52.234;21.288;2024-01-30T01:46:22;102220.53;;;0.51;85.90
83718;BME280;73701;52.234;21.288;2024-01-30T01:48:47;102231.88;;;0.59;85.86
83718;BME280;73701;52.234;21.288;2024-01-30T01:51:14;102241.31;;;0.60;86.16
83718;BME280;73701;52.234;21.288;2024-01-30T01:53:39;102241.25;;;0.59;86.55
83718;BME280;73701;52.234;21.288;2024-01-30T01:56:05;102200.34;;;0.33;86.22
83718;BME280;73701;52.234;21.288;2024-01-30T01:58:31;102245.44;;;0.57;86.40
83718;BME280;73701;52.234;21.288;2024-01-30T02:00:58;101972.44;;;-1.08;85.96
83718;BME280;73701;52.234;21.288;2024-01-30T02:03:23;102258.31;;;0.60;86.34
83718;BME280;73701;52.234;21.288;2024-01-30T02:05:50;102251.25;;;0.52;86.83
83718;BME280;73701;52.234;21.288;2024-01-30T02:08:16;102199.94;;;0.22;86.71
83718;BME280;73701;52.234;21.288;2024-01-30T02:10:41;102230.41;;;0.40;87.09
83718;BME280;73701;52.234;21.288;2024-01-30T02:13:07;102255.47;;;0.50;87.55
83718;BME280;73701;52.234;21.288;2024-01-30T02:15:32;102239.97;;;0.46;86.80
83718;BME280;73701;52.234;21.288;2024-01-30T02:17:57;102169.91;;;-0.09;86.51
83718;BME280;73701;52.234;21.288;2024-01-30T02:20:24;102279.28;;;0.49;86.73
83718;BME280;73701;52.234;21.288;2024-01-30T02:22:52;102209.66;;;0.32;87.13
83718;BME280;73701;52.234;21.288;2024-01-30T02:25:17;102207.97;;;0.31;87.08
83718;BME280;73701;52.234;21.288;2024-01-30T02:27:43;102205.41;;;0.31;87.11
83718;BME280;73701;52.234;21.288;2024-01-30T02:30:08;102202.59;;;0.25;87.00
83718;BME280;73701;52.234;21.288;2024-01-30T02:32:34;102216.63;;;0.37;87.06
83718;BME280;73701;52.234;21.288;2024-01-30T02:34:59;102240.81;;;0.46;87.63
83718;BME280;73701;52.234;21.288;2024-01-30T02:37:25;102225.84;;;0.31;86.95
83718;BME280;73701;52.234;21.288;2024-01-30T02:39:50;102213.88;;;0.30;87.06
83718;BME280;73701;52.234;21.288;2024-01-30T02:42:15;102237.41;;;0.46;86.96
83718;BME280;73701;52.234;21.288;2024-01-30T02:44:41;102084.84;;;-0.57;87.07
83718;BME280;73701;52.234;21.288;2024-01-30T02:47:06;102237.84;;;0.34;87.35
83718;BME280;73701;52.234;21.288;2024-01-30T02:49:31;102239.19;;;0.24;87.38
83718;BME280;73701;52.234;21.288;2024-01-30T02:51:57;102230.03;;;0.29;87.17
83718;BME280;73701;52.234;21.288;2024-01-30T02:54:22;102248.84;;;0.31;87.48
83718;BME280;73701;52.234;21.288;2024-01-30T02:56:47;102231.66;;;0.27;87.69
83718;BME280;73701;52.234;21.288;2024-01-30T02:59:13;102217.78;;;0.21;87.83
83718;BME280;73701;52.234;21.288;2024-01-30T03:01:45;102224.09;;;0.30;87.56
83718;BME280;73701;52.234;21.288;2024-01-30T03:04:11;102202.06;;;0.10;87.81
83718;BME280;73701;52.234;21.288;2024-01-30T03:06:36;102207.41;;;0.16;87.22
83718;BME280;73701;52.234;21.288;2024-01-30T03:09:02;102230.88;;;0.30;87.63
83718;BME280;73701;52.234;21.288;2024-01-30T03:11:28;102237.75;;;0.31;87.60
83718;BME280;73701;52.234;21.288;2024-01-30T03:13:53;102221.75;;;0.12;87.62
83718;BME280;73701;52.234;21.288;2024-01-30T03:16:18;102235.03;;;0.26;87.13
83718;BME280;73701;52.234;21.288;2024-01-30T03:18:44;102228.88;;;0.21;87.20
83718;BME280;73701;52.234;21.288;2024-01-30T03:21:09;102247.16;;;0.32;87.16
83718;BME280;73701;52.234;21.288;2024-01-30T03:23:34;102218.28;;;0.10;87.17
83718;BME280;73701;52.234;21.288;2024-01-30T03:26:00;102207.56;;;-0.04;87.69
83718;BME280;73701;52.234;21.288;2024-01-30T03:28:25;102182.56;;;-0.12;87.54
83718;BME280;73701;52.234;21.288;2024-01-30T03:30:51;102234.78;;;0.19;87.55
83718;BME280;73701;52.234;21.288;2024-01-30T03:33:16;102214.84;;;0.10;87.13
83718;BME280;73701;52.234;21.288;2024-01-30T03:35:42;102211.44;;;0.09;87.22
83718;BME280;73701;52.234;21.288;2024-01-30T03:38:08;102202.72;;;0.04;87.38
83718;BME280;73701;52.234;21.288;2024-01-30T03:40:33;102200.06;;;0.01;87.07
83718;BME280;73701;52.234;21.288;2024-01-30T03:42:58;102055.59;;;-0.89;87.28
83718;BME280;73701;52.234;21.288;2024-01-30T03:45:24;102225.25;;;0.14;87.57
83718;BME280;73701;52.234;21.288;2024-01-30T03:47:49;102211.00;;;-0.03;87.79
83718;BME280;73701;52.234;21.288;2024-01-30T03:50:14;102185.88;;;-0.15;87.76
83718;BME280;73701;52.234;21.288;2024-01-30T03:52:40;102227.47;;;0.05;87.91
83718;BME280;73701;52.234;21.288;2024-01-30T03:55:05;102234.13;;;0.00;87.80
83718;BME280;73701;52.234;21.288;2024-01-30T03:57:31;102209.72;;;-0.14;87.82
83718;BME280;73701;52.234;21.288;2024-01-30T03:59:56;102233.00;;;-0.07;87.51
83718;BME280;73701;52.234;21.288;2024-01-30T04:02:21;102211.31;;;-0.18;88.16
83718;BME280;73701;52.234;21.288;2024-01-30T04:04:47;102225.25;;;-0.10;88.03
83718;BME280;73701;52.234;21.288;2024-01-30T04:07:12;102174.00;;;-0.37;87.64
83718;BME280;73701;52.234;21.288;2024-01-30T04:09:38;102191.53;;;-0.24;88.32
83718;BME280;73701;52.234;21.288;2024-01-30T04:12:04;102212.22;;;-0.16;88.12
83718;BME280;73701;52.234;21.288;2024-01-30T04:14:29;102193.88;;;-0.30;88.07
83718;BME280;73701;52.234;21.288;2024-01-30T04:16:54;102080.53;;;-1.05;88.35
83718;BME280;73701;52.234;21.288;2024-01-30T04:19:20;102221.38;;;-0.23;87.99
83718;BME280;73701;52.234;21.288;2024-01-30T04:21:45;102234.56;;;-0.10;88.32
83718;BME280;73701;52.234;21.288;2024-01-30T04:24:10;102190.97;;;-0.39;88.63
83718;BME280;73701;52.234;21.288;2024-01-30T04:26:36;102159.72;;;-0.56;88.21
83718;BME280;73701;52.234;21.288;2024-01-30T04:29:02;102203.16;;;-0.32;88.31
83718;BME280;73701;52.234;21.288;2024-01-30T04:31:28;102204.00;;;-0.31;88.09
83718;BME280;73701;52.234;21.288;2024-01-30T04:33:53;102185.69;;;-0.44;88.25
83718;BME280;73701;52.234;21.288;2024-01-30T04:36:19;102228.41;;;-0.17;88.31
83718;BME280;73701;52.234;21.288;2024-01-30T04:38:44;102228.50;;;-0.14;88.41
83718;BME280;73701;52.234;21.288;2024-01-30T04:41:10;102190.22;;;-0.37;87.68
83718;BME280;73701;52.234;21.288;2024-01-30T04:43:35;102225.69;;;-0.20;88.25
83718;BME280;73701;52.234;21.288;2024-01-30T04:46:01;102054.31;;;-1.23;88.19
83718;BME280;73701;52.234;21.288;2024-01-30T04:48:27;102191.19;;;-0.33;88.31
83718;BME280;73701;52.234;21.288;2024-01-30T04:50:52;102214.84;;;-0.14;88.23
83718;BME280;73701;52.234;21.288;2024-01-30T04:53:21;102234.19;;;-0.21;88.35
83718;BME280;73701;52.234;21.288;2024-01-30T04:55:46;102231.41;;;-0.27;88.22
83718;BME280;73701;52.234;21.288;2024-01-30T04:58:12;102239.66;;;-0.35;88.34
83718;BME280;73701;52.234;21.288;2024-01-30T05:00:37;102214.94;;;-0.36;88.37
83718;BME280;73701;52.234;21.288;2024-01-30T05:03:03;102223.69;;;-0.29;88.30
83718;BME280;73701;52.234;21.288;2024-01-30T05:05:28;102199.38;;;-0.42;88.30
83718;BME280;73701;52.234;21.288;2024-01-30T05:07:53;102224.44;;;-0.31;88.25
83718;BME280;73701;52.234;21.288;2024-01-30T05:10:19;102224.44;;;-0.31;88.19
83718;BME280;73701;52.234;21.288;2024-01-30T05:12:44;102096.41;;;-1.12;88.26
83718;BME280;73701;52.234;21.288;2024-01-30T05:15:09;102225.22;;;-0.34;88.45
83718;BME280;73701;52.234;21.288;2024-01-30T05:17:35;102212.19;;;-0.40;88.95
83718;BME280;73701;52.234;21.288;2024-01-30T05:20:00;102189.47;;;-0.57;89.11
83718;BME280;73701;52.234;21.288;2024-01-30T05:22:25;102139.59;;;-0.94;88.58
83718;BME280;73701;52.234;21.288;2024-01-30T05:24:51;102179.16;;;-0.60;88.20
83718;BME280;73701;52.234;21.288;2024-01-30T05:27:16;102205.97;;;-0.48;88.66
83718;BME280;73701;52.234;21.288;2024-01-30T05:29:41;102206.94;;;-0.45;88.07
83718;BME280;73701;52.234;21.288;2024-01-30T05:32:07;102054.56;;;-1.40;88.93
83718;BME280;73701;52.234;21.288;2024-01-30T05:34:32;102192.09;;;-0.55;88.87
83718;BME280;73701;52.234;21.288;2024-01-30T05:36:58;102159.72;;;-0.79;88.19
83718;BME280;73701;52.234;21.288;2024-01-30T05:39:23;102061.69;;;-1.31;88.38
83718;BME280;73701;52.234;21.288;2024-01-30T05:41:48;102196.13;;;-0.60;88.88
83718;BME280;73701;52.234;21.288;2024-01-30T05:44:13;102195.28;;;-0.61;88.99
83718;BME280;73701;52.234;21.288;2024-01-30T05:46:39;102185.81;;;-0.63;88.52
83718;BME280;73701;52.234;21.288;2024-01-30T05:49:04;102202.47;;;-0.50;88.76
83718;BME280;73701;52.234;21.288;2024-01-30T05:51:29;102187.56;;;-0.62;88.18
83718;BME280;73701;52.234;21.288;2024-01-30T05:53:55;102221.38;;;-0.45;88.66
83718;BME280;73701;52.234;21.288;2024-01-30T05:56:20;102211.56;;;-0.57;88.38
83718;BME280;73701;52.234;21.288;2024-01-30T05:58:45;102166.72;;;-0.96;88.56
83718;BME280;73701;52.234;21.288;2024-01-30T06:01:11;102216.44;;;-0.63;88.40
83718;BME280;73701;52.234;21.288;2024-01-30T06:03:36;102227.03;;;-0.54;88.61
83718;BME280;73701;52.234;21.288;2024-01-30T06:06:02;102202.78;;;-0.65;88.30
83718;BME280;73701;52.234;21.288;2024-01-30T06:08:27;102194.81;;;-0.73;88.58
83718;BME280;73701;52.234;21.288;2024-01-30T06:10:53;102198.31;;;-0.71;88.67
83718;BME280;73701;52.234;21.288;2024-01-30T06:13:18;102199.75;;;-0.78;88.62
83718;BME280;73701;52.234;21.288;2024-01-30T06:15:44;102229.31;;;-0.60;88.35
83718;BME280;73701;52.234;21.288;2024-01-30T06:18:09;102226.75;;;-0.60;88.39
83718;BME280;73701;52.234;21.288;2024-01-30T06:20:34;102092.53;;;-1.46;88.44
83718;BME280;73701;52.234;21.288;2024-01-30T06:23:00;102222.34;;;-0.64;88.68
83718;BME280;73701;52.234;21.288;2024-01-30T06:25:25;102199.91;;;-0.73;88.66
83718;BME280;73701;52.234;21.288;2024-01-30T06:27:51;102205.00;;;-0.73;88.66
83718;BME280;73701;52.234;21.288;2024-01-30T06:30:16;102075.38;;;-1.50;88.52
83718;BME280;73701;52.234;21.288;2024-01-30T06:32:42;102216.56;;;-0.60;88.76
83718;BME280;73701;52.234;21.288;2024-01-30T06:35:08;102217.72;;;-0.52;88.30
83718;BME280;73701;52.234;21.288;2024-01-30T06:37:33;102184.84;;;-0.67;88.20
83718;BME280;73701;52.234;21.288;2024-01-30T06:39:58;102178.16;;;-0.63;87.77
83718;BME280;73701;52.234;21.288;2024-01-30T06:42:24;102185.88;;;-0.62;88.20
83718;BME280;73701;52.234;21.288;2024-01-30T06:44:49;102211.94;;;-0.48;87.87
83718;BME280;73701;52.234;21.288;2024-01-30T06:47:14;102203.31;;;-0.50;87.84
83718;BME280;73701;52.234;21.288;2024-01-30T06:49:40;102155.31;;;-0.83;87.62
83718;BME280;73701;52.234;21.288;2024-01-30T06:52:07;102189.31;;;-0.61;87.62
83718;BME280;73701;52.234;21.288;2024-01-30T06:54:33;102218.31;;;-0.37;87.64
83718;BME280;73701;52.234;21.288;2024-01-30T06:56:58;102206.41;;;-0.36;87.29
83718;BME280;73701;52.234;21.288;2024-01-30T06:59:24;102201.19;;;-0.39;87.17
83718;BME280;73701;52.234;21.288;2024-01-30T07:01:49;102230.00;;;-0.19;87.66
83718;BME280;73701;52.234;21.288;2024-01-30T07:04:15;102211.09;;;-0.24;87.20
83718;BME280;73701;52.234;21.288;2024-01-30T07:06:41;102219.53;;;-0.27;86.89
83718;BME280;73701;52.234;21.288;2024-01-30T07:09:06;102216.75;;;-0.09;86.64
83718;BME280;73701;52.234;21.288;2024-01-30T07:11:32;102223.56;;;-0.09;86.71
83718;BME280;73701;52.234;21.288;2024-01-30T07:13:57;102220.00;;;-0.13;86.30
83718;BME280;73701;52.234;21.288;2024-01-30T07:16:22;102092.09;;;-0.90;85.87
83718;BME280;73701;52.234;21.288;2024-01-30T07:18:48;102230.78;;;0.03;85.77
83718;BME280;73701;52.234;21.288;2024-01-30T07:21:14;102238.69;;;0.09;86.25
83718;BME280;73701;52.234;21.288;2024-01-30T07:23:40;102266.91;;;0.12;85.99
83718;BME280;73701;52.234;21.288;2024-01-30T07:26:06;102178.16;;;-0.16;85.66
83718;BME280;73701;52.234;21.288;2024-01-30T07:28:33;102220.78;;;0.09;85.41
83718;BME280;73701;52.234;21.288;2024-01-30T07:30:58;102106.16;;;-0.55;84.97
83718;BME280;73701;52.234;21.288;2024-01-30T07:33:24;102231.00;;;0.33;85.11
83718;BME280;73701;52.234;21.288;2024-01-30T07:35:52;102248.19;;;0.37;85.16
83718;BME280;73701;52.234;21.288;2024-01-30T07:38:17;102214.28;;;0.43;84.57
83718;BME280;73701;52.234;21.288;2024-01-30T07:40:43;102232.50;;;0.52;84.41
83718;BME280;73701;52.234;21.288;2024-01-30T07:43:08;102202.34;;;0.42;84.04
83718;BME280;73701;52.234;21.288;2024-01-30T07:45:34;102197.50;;;0.51;83.53
83718;BME280;73701;52.234;21.288;2024-01-30T07:47:59;102215.94;;;0.66;83.28
83718;BME280;73701;52.234;21.288;2024-01-30T07:50:25;102230.03;;;0.81;83.52
83718;BME280;73701;52.234;21.288;2024-01-30T07:52:51;102203.28;;;0.71;82.91
83718;BME280;73701;52.234;21.288;2024-01-30T07:55:20;102227.03;;;0.93;82.67
83718;BME280;73701;52.234;21.288;2024-01-30T07:57:49;102215.94;;;0.94;82.35
83718;BME280;73701;52.234;21.288;2024-01-30T08:00:15;102181.69;;;0.89;82.14
83718;BME280;73701;52.234;21.288;2024-01-30T08:02:40;102186.75;;;0.87;81.64
83718;BME280;73701;52.234;21.288;2024-01-30T08:05:06;102193.28;;;1.05;81.30
83718;BME280;73701;52.234;21.288;2024-01-30T08:07:31;102223.97;;;1.32;80.91
83718;BME280;73701;52.234;21.288;2024-01-30T08:09:58;102187.66;;;1.16;80.14
83718;BME280;73701;52.234;21.288;2024-01-30T08:12:23;102204.00;;;1.20;80.16
83718;BME280;73701;52.234;21.288;2024-01-30T08:14:48;102207.09;;;1.38;80.11
83718;BME280;73701;52.234;21.288;2024-01-30T08:17:14;102181.22;;;1.29;79.35
83718;BME280;73701;52.234;21.288;2024-01-30T08:19:39;102212.69;;;1.54;79.57
83718;BME280;73701;52.234;21.288;2024-01-30T08:22:04;102205.28;;;1.65;78.00
83718;BME280;73701;52.234;21.288;2024-01-30T08:24:30;102206.34;;;1.71;79.14
83718;BME280;73701;52.234;21.288;2024-01-30T08:26:55;102192.41;;;1.62;78.10
83718;BME280;73701;52.234;21.288;2024-01-30T08:29:41;102201.63;;;1.85;77.49
83718;BME280;73701;52.234;21.288;2024-01-30T08:32:09;102197.34;;;1.86;77.81
83718;BME280;73701;52.234;21.288;2024-01-30T08:34:35;102205.25;;;1.94;77.20
83718;BME280;73701;52.234;21.288;2024-01-30T08:37:01;102205.28;;;1.95;76.65
83718;BME280;73701;52.234;21.288;2024-01-30T08:39:26;102155.22;;;1.76;76.98
83718;BME280;73701;52.234;21.288;2024-01-30T08:41:51;102199.75;;;2.12;76.84
83718;BME280;73701;52.234;21.288;2024-01-30T08:44:17;102192.00;;;2.09;76.76
83718;BME280;73701;52.234;21.288;2024-01-30T08:46:43;102162.53;;;1.93;76.32
83718;BME280;73701;52.234;21.288;2024-01-30T08:49:09;102188.00;;;2.18;76.62
83718;BME280;73701;52.234;21.288;2024-01-30T08:51:35;102181.13;;;2.17;76.17
83718;BME280;73701;52.234;21.288;2024-01-30T08:54:00;102179.66;;;2.27;75.91
83718;BME280;73701;52.234;21.288;2024-01-30T08:56:26;102163.28;;;2.22;74.96
83718;BME280;73701;52.234;21.288;2024-01-30T08:58:51;102183.16;;;2.31;74.85
83718;BME280;73701;52.234;21.288;2024-01-30T09:01:17;102167.66;;;2.26;75.95
83718;BME280;73701;52.234;21.288;2024-01-30T09:03:42;102180.09;;;2.44;75.09
83718;BME280;73701;52.234;21.288;2024-01-30T09:06:10;102204.34;;;2.57;75.45
83718;BME280;73701;52.234;21.288;2024-01-30T09:08:36;102167.25;;;2.42;74.75
83718;BME280;73701;52.234;21.288;2024-01-30T09:11:08;102181.94;;;2.50;75.59
83718;BME280;73701;52.234;21.288;2024-01-30T09:13:33;102202.91;;;2.67;74.98
83718;BME280;73701;52.234;21.288;2024-01-30T09:15:58;102171.97;;;2.62;74.51
83718;BME280;73701;52.234;21.288;2024-01-30T09:18:23;102164.25;;;2.61;74.00
83718;BME280;73701;52.234;21.288;2024-01-30T09:20:49;102184.41;;;2.82;75.13
83718;BME280;73701;52.234;21.288;2024-01-30T09:23:14;102180.25;;;2.85;74.02
83718;BME280;73701;52.234;21.288;2024-01-30T09:25:39;102178.69;;;2.93;74.17
83718;BME280;73701;52.234;21.288;2024-01-30T09:28:05;102193.66;;;3.11;73.80
83718;BME280;73701;52.234;21.288;2024-01-30T09:30:31;102159.03;;;2.92;72.84
83718;BME280;73701;52.234;21.288;2024-01-30T09:32:56;102190.38;;;3.17;73.58
83718;BME280;73701;52.234;21.288;2024-01-30T09:35:21;102159.38;;;3.08;72.54
83718;BME280;73701;52.234;21.288;2024-01-30T09:37:46;102178.38;;;3.18;73.23
83718;BME280;73701;52.234;21.288;2024-01-30T09:40:13;102016.44;;;2.29;71.97
83718;BME280;73701;52.234;21.288;2024-01-30T09:42:40;102183.06;;;3.36;72.89
83718;BME280;73701;52.234;21.288;2024-01-30T09:45:05;102152.06;;;3.26;72.26
83718;BME280;73701;52.234;21.288;2024-01-30T09:47:41;102148.88;;;3.38;73.07
83718;BME280;73701;52.234;21.288;2024-01-30T09:50:10;102154.28;;;3.51;72.12
83718;BME280;73701;52.234;21.288;2024-01-30T09:52:36;102113.66;;;3.33;71.54
83718;BME280;73701;52.234;21.288;2024-01-30T09:55:02;102150.13;;;3.59;70.99
83718;BME280;73701;52.234;21.288;2024-01-30T09:57:27;102166.69;;;3.73;71.06
83718;BME280;73701;52.234;21.288;2024-01-30T09:59:53;102157.38;;;3.78;71.25
83718;BME280;73701;52.234;21.288;2024-01-30T10:02:21;102159.22;;;3.84;70.91
83718;BME280;73701;52.234;21.288;2024-01-30T10:04:48;102015.63;;;3.09;70.04
83718;BME280;73701;52.234;21.288;2024-01-30T10:07:14;102119.66;;;3.77;71.52
83718;BME280;73701;52.234;21.288;2024-01-30T10:09:39;102140.41;;;3.87;71.53
83718;BME280;73701;52.234;21.288;2024-01-30T10:12:05;102154.53;;;4.10;70.75
83718;BME280;73701;52.234;21.288;2024-01-30T10:14:31;102148.72;;;4.19;69.59
83718;BME280;73701;52.234;21.288;2024-01-30T10:16:57;102010.09;;;3.34;70.18
83718;BME280;73701;52.234;21.288;2024-01-30T10:19:23;102132.41;;;4.20;70.60
83718;BME280;73701;52.234;21.288;2024-01-30T10:21:48;102131.75;;;4.30;69.06
83718;BME280;73701;52.234;21.288;2024-01-30T10:24:13;102124.91;;;4.32;68.45
83718;BME280;73701;52.234;21.288;2024-01-30T10:26:39;102123.34;;;4.41;67.82
83718;BME280;73701;52.234;21.288;2024-01-30T10:29:04;102007.41;;;3.75;66.86
83718;BME280;73701;52.234;21.288;2024-01-30T10:31:30;102118.34;;;4.52;67.58
83718;BME280;73701;52.234;21.288;2024-01-30T10:33:56;102122.81;;;4.62;66.91
83718;BME280;73701;52.234;21.288;2024-01-30T10:36:28;101970.56;;;3.77;66.76
83718;BME280;73701;52.234;21.288;2024-01-30T10:38:55;102123.09;;;4.80;66.95
83718;BME280;73701;52.234;21.288;2024-01-30T10:41:27;102105.00;;;4.77;66.81
83718;BME280;73701;52.234;21.288;2024-01-30T10:44:08;101899.19;;;3.58;66.87
83718;BME280;73701;52.234;21.288;2024-01-30T10:46:35;102094.66;;;4.74;65.86
83718;BME280;73701;52.234;21.288;2024-01-30T10:49:03;102105.22;;;4.93;66.21
83718;BME280;73701;52.234;21.288;2024-01-30T10:51:31;102107.09;;;5.03;66.67
83718;BME280;73701;52.234;21.288;2024-01-30T10:53:57;102136.38;;;5.10;66.06
83718;BME280;73701;52.234;21.288;2024-01-30T10:56:23;102089.91;;;5.00;66.27
83718;BME280;73701;52.234;21.288;2024-01-30T10:58:50;102073.47;;;4.92;65.59
83718;BME280;73701;52.234;21.288;2024-01-30T11:01:20;102102.09;;;5.15;64.65
83718;BME280;73701;52.234;21.288;2024-01-30T11:03:51;102083.16;;;5.10;64.86
83718;BME280;73701;52.234;21.288;2024-01-30T11:06:17;102075.50;;;5.18;64.86
83718;BME280;73701;52.234;21.288;2024-01-30T11:08:45;102068.72;;;5.22;65.44
83718;BME280;73701;52.234;21.288;2024-01-30T11:11:11;101937.44;;;4.59;64.61
83718;BME280;73701;52.234;21.288;2024-01-30T11:13:36;102068.03;;;5.41;64.43
83718;BME280;73701;52.234;21.288;2024-01-30T11:16:05;102079.38;;;5.56;63.71
83718;BME280;73701;52.234;21.288;2024-01-30T11:18:32;102095.66;;;5.51;63.84
83718;BME280;73701;52.234;21.288;2024-01-30T11:21:01;101776.19;;;3.86;62.94
83718;BME280;73701;52.234;21.288;2024-01-30T11:23:30;102064.00;;;5.65;63.22
83718;BME280;73701;52.234;21.288;2024-01-30T11:25:58;102050.28;;;5.66;63.94
83718;BME280;73701;52.234;21.288;2024-01-30T11:28:23;102052.94;;;5.75;64.52
83718;BME280;73701;52.234;21.288;2024-01-30T11:30:49;102051.31;;;5.85;63.62
83718;BME280;73701;52.234;21.288;2024-01-30T11:33:28;102042.75;;;5.87;63.38
83718;BME280;73701;52.234;21.288;2024-01-30T11:35:57;102031.59;;;5.92;62.43
83718;BME280;73701;52.234;21.288;2024-01-30T11:38:25;102069.59;;;6.10;62.93
83718;BME280;73701;52.234;21.288;2024-01-30T11:40:51;101886.63;;;5.21;62.61
83718;BME280;73701;52.234;21.288;2024-01-30T11:43:18;102036.16;;;6.17;62.16
83718;BME280;73701;52.234;21.288;2024-01-30T11:45:44;102050.88;;;6.35;62.89
83718;BME280;73701;52.234;21.288;2024-01-30T11:48:12;101929.91;;;5.59;62.16
83718;BME280;73701;52.234;21.288;2024-01-30T11:50:39;102003.47;;;6.22;62.47
83718;BME280;73701;52.234;21.288;2024-01-30T11:53:05;102038.91;;;6.50;61.87
83718;BME280;73701;52.234;21.288;2024-01-30T11:55:31;101815.31;;;5.16;60.72
83718;BME280;73701;52.234;21.288;2024-01-30T11:57:57;102037.25;;;6.55;60.95
83718;BME280;73701;52.234;21.288;2024-01-30T12:00:23;102033.84;;;6.64;59.78
83718;BME280;73701;52.234;21.288;2024-01-30T12:02:50;102030.41;;;6.60;60.60
83718;BME280;73701;52.234;21.288;2024-01-30T12:05:16;102011.38;;;6.46;60.38
83718;BME280;73701;52.234;21.288;2024-01-30T12:07:44;102001.94;;;6.49;59.91
83718;BME280;73701;52.234;21.288;2024-01-30T12:10:09;102008.84;;;6.56;59.42
83718;BME280;73701;52.234;21.288;2024-01-30T12:12:36;102019.25;;;6.66;59.14
83718;BME280;73701;52.234;21.288;2024-01-30T12:15:02;102005.44;;;6.64;59.31
83718;BME280;73701;52.234;21.288;2024-01-30T12:17:32;102014.09;;;6.75;60.37
83718;BME280;73701;52.234;21.288;2024-01-30T12:20:08;102027.13;;;6.97;59.60
83718;BME280;73701;52.234;21.288;2024-01-30T12:22:41;102022.84;;;7.05;59.38
83718;BME280;73701;52.234;21.288;2024-01-30T12:25:11;102018.56;;;7.13;58.57
83718;BME280;73701;52.234;21.288;2024-01-30T12:27:37;102024.66;;;7.28;59.03
83718;BME280;73701;52.234;21.288;2024-01-30T12:30:07;102011.72;;;7.24;57.83
83718;BME280;73701;52.234;21.288;2024-01-30T12:32:37;102008.28;;;7.35;57.96
83718;BME280;73701;52.234;21.288;2024-01-30T12:35:03;102021.25;;;7.49;57.32
83718;BME280;73701;52.234;21.288;2024-01-30T12:37:30;101928.09;;;6.96;56.06
83718;BME280;73701;52.234;21.288;2024-01-30T12:39:56;102012.66;;;7.54;56.29
83718;BME280;73701;52.234;21.288;2024-01-30T12:42:21;101954.88;;;7.37;57.03